sensor_id;sensor_type;location;lat;lon;timestamp;pressure;altitude;pressure_sealevel;temperature;humidity
59272;BME280;45043;51.068;7.026;2022-07-22T00:02:33;100968.41;;;15.05;63.74
59272;BME280;45043;51.068;7.026;2022-07-22T00:05:34;100964.34;;;14.96;63.87
59272;BME280;45043;51.068;7.026;2022-07-22T00:08:34;100964.81;;;14.80;63.91
59272;BME280;45043;51.068;7.026;2022-07-22T00:11:35;100971.41;;;14.84;64.18
59272;BME280;45043;51.068;7.026;2022-07-22T00:14:37;100967.94;;;14.77;63.91
59272;BME280;45043;51.068;7.026;2022-07-22T00:17:38;100961.94;;;14.81;63.84
59272;BME280;45043;51.068;7.026;2022-07-22T00:20:38;100962.50;;;14.90;63.33
59272;BME280;45043;51.068;7.026;2022-07-22T00:23:39;100960.88;;;14.89;63.94
59272;BME280;45043;51.068;7.026;2022-07-22T00:26:39;100952.25;;;14.87;63.43
59272;BME280;45043;51.068;7.026;2022-07-22T00:29:40;100964.53;;;14.95;62.98
59272;BME280;45043;51.068;7.026;2022-07-22T00:32:41;100960.72;;;14.84;62.86
59272;BME280;45043;51.068;7.026;2022-07-22T00:35:41;100970.78;;;14.82;63.04
59272;BME280;45043;51.068;7.026;2022-07-22T00:38:42;100955.56;;;14.82;63.18
59272;BME280;45043;51.068;7.026;2022-07-22T00:41:44;100958.38;;;14.94;62.81
59272;BME280;45043;51.068;7.026;2022-07-22T00:44:47;100954.50;;;14.90;62.51
59272;BME280;45043;51.068;7.026;2022-07-22T00:47:48;100952.06;;;14.82;62.94
59272;BME280;45043;51.068;7.026;2022-07-22T00:50:49;100953.94;;;14.75;62.96
59272;BME280;45043;51.068;7.026;2022-07-22T00:53:50;100950.63;;;14.79;62.99
59272;BME280;45043;51.068;7.026;2022-07-22T00:56:50;100950.44;;;14.81;62.68
59272;BME280;45043;51.068;7.026;2022-07-22T00:59:51;100957.00;;;14.85;62.99
59272;BME280;45043;51.068;7.026;2022-07-22T01:02:52;100952.47;;;14.86;62.78
59272;BME280;45043;51.068;7.026;2022-07-22T01:05:52;100948.97;;;14.85;62.60
59272;BME280;45043;51.068;7.026;2022-07-22T01:08:56;100950.44;;;14.81;62.82
59272;BME280;45043;51.068;7.026;2022-07-22T01:11:57;100954.75;;;14.82;62.93
59272;BME280;45043;51.068;7.026;2022-07-22T01:14:59;100935.59;;;14.85;62.50
59272;BME280;45043;51.068;7.026;2022-07-22T01:18:00;100949.13;;;14.90;62.68
59272;BME280;45043;51.068;7.026;2022-07-22T01:21:01;100938.84;;;14.87;62.77
59272;BME280;45043;51.068;7.026;2022-07-22T01:24:04;100947.50;;;14.89;62.91
59272;BME280;45043;51.068;7.026;2022-07-22T01:27:05;100952.47;;;14.86;63.03
59272;BME280;45043;51.068;7.026;2022-07-22T01:30:07;100945.50;;;14.78;62.71
59272;BME280;45043;51.068;7.026;2022-07-22T01:33:08;100946.59;;;14.64;63.79
59272;BME280;45043;51.068;7.026;2022-07-22T01:36:09;100944.13;;;14.55;63.73
59272;BME280;45043;51.068;7.026;2022-07-22T01:39:10;100946.41;;;14.45;64.36
59272;BME280;45043;51.068;7.026;2022-07-22T01:42:11;100937.00;;;14.36;64.00
59272;BME280;45043;51.068;7.026;2022-07-22T01:45:12;100943.78;;;14.32;64.69
59272;BME280;45043;51.068;7.026;2022-07-22T01:48:15;100946.91;;;14.22;64.95
59272;BME280;45043;51.068;7.026;2022-07-22T01:51:15;100939.13;;;14.07;65.65
59272;BME280;45043;51.068;7.026;2022-07-22T01:54:16;100935.22;;;14.03;65.91
59272;BME280;45043;51.068;7.026;2022-07-22T01:57:16;100937.06;;;14.03;65.88
59272;BME280;45043;51.068;7.026;2022-07-22T02:00:21;100935.00;;;13.98;66.18
59272;BME280;45043;51.068;7.026;2022-07-22T02:03:22;100941.59;;;13.96;66.65
59272;BME280;45043;51.068;7.026;2022-07-22T02:06:23;100939.34;;;13.99;66.20
59272;BME280;45043;51.068;7.026;2022-07-22T02:09:27;100941.56;;;14.09;66.34
59272;BME280;45043;51.068;7.026;2022-07-22T02:12:31;100940.56;;;14.10;66.32
59272;BME280;45043;51.068;7.026;2022-07-22T02:15:33;100938.94;;;14.02;66.25
59272;BME280;45043;51.068;7.026;2022-07-22T02:18:35;100932.31;;;13.98;66.58
59272;BME280;45043;51.068;7.026;2022-07-22T02:21:36;100930.09;;;13.89;67.01
59272;BME280;45043;51.068;7.026;2022-07-22T02:24:37;100930.50;;;13.79;67.70
59272;BME280;45043;51.068;7.026;2022-07-22T02:27:39;100933.00;;;13.74;67.83
59272;BME280;45043;51.068;7.026;2022-07-22T02:30:40;100937.50;;;13.73;67.85
59272;BME280;45043;51.068;7.026;2022-07-22T02:33:41;100931.34;;;13.73;67.99
59272;BME280;45043;51.068;7.026;2022-07-22T02:36:43;100930.50;;;13.72;68.23
59272;BME280;45043;51.068;7.026;2022-07-22T02:39:43;100930.50;;;13.72;68.13
59272;BME280;45043;51.068;7.026;2022-07-22T02:42:44;100927.66;;;13.74;68.13
59272;BME280;45043;51.068;7.026;2022-07-22T02:45:44;100930.91;;;13.76;68.05
59272;BME280;45043;51.068;7.026;2022-07-22T02:48:47;100934.81;;;13.80;67.88
59272;BME280;45043;51.068;7.026;2022-07-22T02:51:51;100932.16;;;13.80;67.92
59272;BME280;45043;51.068;7.026;2022-07-22T02:54:52;100921.69;;;13.78;67.82
59272;BME280;45043;51.068;7.026;2022-07-22T02:57:52;100941.41;;;13.84;68.01
59272;BME280;45043;51.068;7.026;2022-07-22T03:00:54;100932.16;;;13.86;67.83
59272;BME280;45043;51.068;7.026;2022-07-22T03:03:54;100930.31;;;13.80;67.58
59272;BME280;45043;51.068;7.026;2022-07-22T03:06:56;100938.34;;;13.80;67.76
59272;BME280;45043;51.068;7.026;2022-07-22T03:09:58;100942.44;;;13.76;67.94
59272;BME280;45043;51.068;7.026;2022-07-22T03:12:59;100931.72;;;13.70;67.58
59272;BME280;45043;51.068;7.026;2022-07-22T03:15:59;100941.00;;;13.74;68.04
59272;BME280;45043;51.068;7.026;2022-07-22T03:19:00;100942.03;;;13.73;68.21
59272;BME280;45043;51.068;7.026;2022-07-22T03:22:00;100941.41;;;13.77;68.29
59272;BME280;45043;51.068;7.026;2022-07-22T03:25:03;100947.56;;;13.78;68.04
59272;BME280;45043;51.068;7.026;2022-07-22T03:28:03;100941.00;;;13.74;68.23
59272;BME280;45043;51.068;7.026;2022-07-22T03:31:04;100939.97;;;13.75;68.28
59272;BME280;45043;51.068;7.026;2022-07-22T03:34:05;100928.06;;;13.77;68.61
59272;BME280;45043;51.068;7.026;2022-07-22T03:37:11;100934.22;;;13.84;68.12
59272;BME280;45043;51.068;7.026;2022-07-22T03:40:13;100924.13;;;13.86;67.83
59272;BME280;45043;51.068;7.026;2022-07-22T03:43:15;100921.88;;;13.83;68.16
59272;BME280;45043;51.068;7.026;2022-07-22T03:46:16;100929.47;;;13.86;68.02
59272;BME280;45043;51.068;7.026;2022-07-22T03:49:16;100940.78;;;13.82;68.37
59272;BME280;45043;51.068;7.026;2022-07-22T03:52:17;100936.47;;;13.81;68.22
59272;BME280;45043;51.068;7.026;2022-07-22T03:55:18;100929.28;;;13.75;68.25
59272;BME280;45043;51.068;7.026;2022-07-22T03:58:20;100925.16;;;13.66;68.31
59272;BME280;45043;51.068;7.026;2022-07-22T04:01:20;100935.03;;;13.65;68.41
59272;BME280;45043;51.068;7.026;2022-07-22T04:04:21;100932.34;;;13.58;68.67
59272;BME280;45043;51.068;7.026;2022-07-22T04:07:22;100930.28;;;13.60;68.86
59272;BME280;45043;51.068;7.026;2022-07-22T04:10:23;100930.09;;;13.62;68.86
59272;BME280;45043;51.068;7.026;2022-07-22T04:13:23;100929.69;;;13.65;68.88
59272;BME280;45043;51.068;7.026;2022-07-22T04:16:29;100930.69;;;13.64;69.07
59272;BME280;45043;51.068;7.026;2022-07-22T04:19:38;100929.69;;;13.65;69.09
59272;BME280;45043;51.068;7.026;2022-07-22T04:22:50;100923.50;;;13.65;69.11
59272;BME280;45043;51.068;7.026;2022-07-22T04:25:50;100923.09;;;13.68;68.76
59272;BME280;45043;51.068;7.026;2022-07-22T04:28:51;100922.72;;;13.71;68.76
59272;BME280;45043;51.068;7.026;2022-07-22T04:31:55;100921.47;;;13.80;68.95
59272;BME280;45043;51.068;7.026;2022-07-22T04:34:55;100916.34;;;13.85;68.54
59272;BME280;45043;51.068;7.026;2022-07-22T04:37:56;100917.38;;;13.84;68.69
59272;BME280;45043;51.068;7.026;2022-07-22T04:40:57;100919.00;;;13.85;68.60
59272;BME280;45043;51.068;7.026;2022-07-22T04:43:59;100910.41;;;13.76;69.30
59272;BME280;45043;51.068;7.026;2022-07-22T04:47:02;100917.97;;;13.79;68.61
59272;BME280;45043;51.068;7.026;2022-07-22T04:50:04;100920.66;;;13.79;68.82
59272;BME280;45043;51.068;7.026;2022-07-22T04:53:05;100923.94;;;13.75;68.72
59272;BME280;45043;51.068;7.026;2022-07-22T04:56:06;100927.41;;;13.69;68.69
59272;BME280;45043;51.068;7.026;2022-07-22T04:59:07;100924.53;;;13.63;68.99
59272;BME280;45043;51.068;7.026;2022-07-22T05:02:09;100923.09;;;13.61;69.05
59272;BME280;45043;51.068;7.026;2022-07-22T05:05:10;100929.28;;;13.61;68.78
59272;BME280;45043;51.068;7.026;2022-07-22T05:08:11;100932.34;;;13.65;68.68
59272;BME280;45043;51.068;7.026;2022-07-22T05:11:13;100935.44;;;13.62;68.92
59272;BME280;45043;51.068;7.026;2022-07-22T05:14:13;100936.25;;;13.62;68.83
59272;BME280;45043;51.068;7.026;2022-07-22T05:17:14;100937.88;;;13.63;69.14
59272;BME280;45043;51.068;7.026;2022-07-22T05:20:25;100942.00;;;13.66;68.95
59272;BME280;45043;51.068;7.026;2022-07-22T05:23:25;100944.44;;;13.68;68.83
59272;BME280;45043;51.068;7.026;2022-07-22T05:26:26;100938.69;;;13.64;68.96
59272;BME280;45043;51.068;7.026;2022-07-22T05:29:30;100944.84;;;13.65;69.07
59272;BME280;45043;51.068;7.026;2022-07-22T05:32:31;100936.22;;;13.49;69.05
59272;BME280;45043;51.068;7.026;2022-07-22T05:35:34;100940.72;;;13.42;68.96
59272;BME280;45043;51.068;7.026;2022-07-22T05:38:35;100936.63;;;13.33;68.98
59272;BME280;45043;51.068;7.026;2022-07-22T05:41:36;100945.84;;;13.24;68.95
59272;BME280;45043;51.068;7.026;2022-07-22T05:44:38;100940.31;;;13.19;69.06
59272;BME280;45043;51.068;7.026;2022-07-22T05:47:41;100937.00;;;13.17;68.98
59272;BME280;45043;51.068;7.026;2022-07-22T05:50:42;100927.75;;;13.12;68.66
59272;BME280;45043;51.068;7.026;2022-07-22T05:53:43;100928.41;;;13.14;68.78
59272;BME280;45043;51.068;7.026;2022-07-22T05:56:45;100925.72;;;13.14;68.97
59272;BME280;45043;51.068;7.026;2022-07-22T05:59:46;100931.97;;;14.66;66.89
59272;BME280;45043;51.068;7.026;2022-07-22T06:02:46;100938.56;;;16.34;62.28
59272;BME280;45043;51.068;7.026;2022-07-22T06:05:52;100928.69;;;17.55;58.63
59272;BME280;45043;51.068;7.026;2022-07-22T06:08:53;100931.72;;;18.40;56.04
59272;BME280;45043;51.068;7.026;2022-07-22T06:11:53;100920.53;;;19.01;53.99
59272;BME280;45043;51.068;7.026;2022-07-22T06:14:54;100928.28;;;19.59;52.41
59272;BME280;45043;51.068;7.026;2022-07-22T06:17:54;100925.94;;;20.02;50.73
59272;BME280;45043;51.068;7.026;2022-07-22T06:20:56;100925.34;;;20.39;49.65
59272;BME280;45043;51.068;7.026;2022-07-22T06:23:57;100932.75;;;20.70;48.81
59272;BME280;45043;51.068;7.026;2022-07-22T06:26:58;100931.97;;;20.97;47.81
59272;BME280;45043;51.068;7.026;2022-07-22T06:29:59;100932.16;;;21.17;47.22
59272;BME280;45043;51.068;7.026;2022-07-22T06:32:59;100929.09;;;21.36;46.66
59272;BME280;45043;51.068;7.026;2022-07-22T06:36:00;100930.06;;;21.51;46.18
59272;BME280;45043;51.068;7.026;2022-07-22T06:39:03;100927.72;;;21.65;45.55
59272;BME280;45043;51.068;7.026;2022-07-22T06:42:20;100920.25;;;21.77;45.08
59272;BME280;45043;51.068;7.026;2022-07-22T06:45:42;100923.00;;;21.88;45.15
59272;BME280;45043;51.068;7.026;2022-07-22T06:49:00;100926.03;;;21.96;44.25
59272;BME280;45043;51.068;7.026;2022-07-22T06:52:03;100916.63;;;22.04;43.99
59272;BME280;45043;51.068;7.026;2022-07-22T06:55:04;100918.03;;;22.12;44.07
59272;BME280;45043;51.068;7.026;2022-07-22T06:58:09;100916.72;;;22.19;44.04
59272;BME280;45043;51.068;7.026;2022-07-22T07:01:10;100907.81;;;22.24;43.85
59272;BME280;45043;51.068;7.026;2022-07-22T07:04:23;100914.31;;;22.28;43.60
59272;BME280;45043;51.068;7.026;2022-07-22T07:07:24;100905.38;;;22.33;43.33
59272;BME280;45043;51.068;7.026;2022-07-22T07:10:29;100904.06;;;22.35;42.82
59272;BME280;45043;51.068;7.026;2022-07-22T07:13:38;100913.56;;;22.38;43.00
59272;BME280;45043;51.068;7.026;2022-07-22T07:16:41;100908.41;;;22.41;43.13
59272;BME280;45043;51.068;7.026;2022-07-22T07:19:42;100905.97;;;22.40;42.93
59272;BME280;45043;51.068;7.026;2022-07-22T07:22:43;100913.84;;;22.41;42.60
59272;BME280;45043;51.068;7.026;2022-07-22T07:25:45;100908.94;;;22.43;42.57
59272;BME280;45043;51.068;7.026;2022-07-22T07:28:45;100903.81;;;22.42;42.38
59272;BME280;45043;51.068;7.026;2022-07-22T07:31:55;100905.47;;;22.48;42.13
59272;BME280;45043;51.068;7.026;2022-07-22T07:34:56;100909.00;;;22.48;42.11
59272;BME280;45043;51.068;7.026;2022-07-22T07:37:56;100901.91;;;22.42;42.52
59272;BME280;45043;51.068;7.026;2022-07-22T07:40:57;100906.00;;;22.45;42.58
59272;BME280;45043;51.068;7.026;2022-07-22T07:43:57;100901.13;;;22.47;42.06
59272;BME280;45043;51.068;7.026;2022-07-22T07:46:58;100902.22;;;22.51;42.24
59272;BME280;45043;51.068;7.026;2022-07-22T07:49:59;100898.69;;;22.50;42.37
59272;BME280;45043;51.068;7.026;2022-07-22T07:53:03;100898.44;;;22.52;42.27
59272;BME280;45043;51.068;7.026;2022-07-22T07:56:04;100893.03;;;22.52;42.25
59272;BME280;45043;51.068;7.026;2022-07-22T07:59:06;100892.75;;;22.54;41.98
59272;BME280;45043;51.068;7.026;2022-07-22T08:02:08;100890.03;;;22.54;41.79
59272;BME280;45043;51.068;7.026;2022-07-22T08:05:09;100889.22;;;22.53;42.11
59272;BME280;45043;51.068;7.026;2022-07-22T08:08:11;100899.53;;;22.56;42.34
59272;BME280;45043;51.068;7.026;2022-07-22T08:11:12;100896.00;;;22.56;42.17
59272;BME280;45043;51.068;7.026;2022-07-22T08:14:29;100895.22;;;22.55;41.78
59272;BME280;45043;51.068;7.026;2022-07-22T08:18:05;100903.34;;;22.55;41.98
59272;BME280;45043;51.068;7.026;2022-07-22T08:21:05;100901.16;;;22.57;41.83
59272;BME280;45043;51.068;7.026;2022-07-22T08:24:16;100897.63;;;22.57;42.21
59272;BME280;45043;51.068;7.026;2022-07-22T08:27:17;100898.16;;;22.59;42.23
59272;BME280;45043;51.068;7.026;2022-07-22T08:30:20;100895.22;;;22.55;42.16
59272;BME280;45043;51.068;7.026;2022-07-22T08:33:23;100898.72;;;22.56;41.91
59272;BME280;45043;51.068;7.026;2022-07-22T08:36:24;100895.47;;;22.54;41.92
59272;BME280;45043;51.068;7.026;2022-07-22T08:39:25;100901.16;;;22.52;41.68
59272;BME280;45043;51.068;7.026;2022-07-22T08:42:26;100894.66;;;22.53;42.43
59272;BME280;45043;51.068;7.026;2022-07-22T08:45:28;100899.78;;;22.55;42.27
59272;BME280;45043;51.068;7.026;2022-07-22T08:48:29;100901.44;;;22.56;42.34
59272;BME280;45043;51.068;7.026;2022-07-22T08:51:38;100908.19;;;22.58;41.75
59272;BME280;45043;51.068;7.026;2022-07-22T08:54:51;100906.56;;;22.57;42.26
59272;BME280;45043;51.068;7.026;2022-07-22T08:57:52;100900.06;;;22.58;41.66
59272;BME280;45043;51.068;7.026;2022-07-22T09:01:07;100910.09;;;22.58;41.79
59272;BME280;45043;51.068;7.026;2022-07-22T09:04:09;100907.66;;;22.61;41.84
59272;BME280;45043;51.068;7.026;2022-07-22T09:07:10;100906.56;;;22.62;42.24
59272;BME280;45043;51.068;7.026;2022-07-22T09:10:15;100899.28;;;22.63;42.06
59272;BME280;45043;51.068;7.026;2022-07-22T09:13:47;100896.81;;;22.61;42.17
59272;BME280;45043;51.068;7.026;2022-07-22T09:17:42;100891.94;;;22.58;42.02
59272;BME280;45043;51.068;7.026;2022-07-22T09:21:11;100903.84;;;22.57;41.82
59272;BME280;45043;51.068;7.026;2022-07-22T09:24:30;100891.94;;;22.58;41.86
59272;BME280;45043;51.068;7.026;2022-07-22T09:27:50;100901.16;;;22.57;41.77
59272;BME280;45043;51.068;7.026;2022-07-22T09:31:01;100908.19;;;22.58;41.90
59272;BME280;45043;51.068;7.026;2022-07-22T09:34:05;100907.13;;;22.59;42.00
59272;BME280;45043;51.068;7.026;2022-07-22T09:37:06;100909.84;;;22.59;41.93
59272;BME280;45043;51.068;7.026;2022-07-22T09:40:14;100909.84;;;22.59;41.46
59272;BME280;45043;51.068;7.026;2022-07-22T09:43:18;100904.66;;;22.58;41.55
59272;BME280;45043;51.068;7.026;2022-07-22T09:46:35;100911.44;;;22.55;41.54
59272;BME280;45043;51.068;7.026;2022-07-22T09:49:58;100912.53;;;22.59;42.09
59272;BME280;45043;51.068;7.026;2022-07-22T09:53:12;100915.25;;;22.59;41.80
59272;BME280;45043;51.068;7.026;2022-07-22T09:56:18;100902.78;;;22.58;41.84
59272;BME280;45043;51.068;7.026;2022-07-22T09:59:19;100892.50;;;22.55;41.97
59272;BME280;45043;51.068;7.026;2022-07-22T10:02:33;100899.00;;;22.59;41.88
59272;BME280;45043;51.068;7.026;2022-07-22T10:05:41;100893.03;;;22.62;41.94
59272;BME280;45043;51.068;7.026;2022-07-22T10:08:42;100884.66;;;22.64;41.68
59272;BME280;45043;51.068;7.026;2022-07-22T10:11:44;100882.22;;;22.67;41.38
59272;BME280;45043;51.068;7.026;2022-07-22T10:14:50;100879.53;;;22.67;41.62
59272;BME280;45043;51.068;7.026;2022-07-22T10:17:56;100879.00;;;22.70;42.07
59272;BME280;45043;51.068;7.026;2022-07-22T10:21:06;100873.81;;;22.69;41.78
59272;BME280;45043;51.068;7.026;2022-07-22T10:24:15;100866.50;;;22.69;41.38
59272;BME280;45043;51.068;7.026;2022-07-22T10:27:55;100860.00;;;22.65;41.64
59272;BME280;45043;51.068;7.026;2022-07-22T10:31:24;100856.25;;;22.66;41.52
59272;BME280;45043;51.068;7.026;2022-07-22T10:34:25;100846.50;;;22.70;41.86
59272;BME280;45043;51.068;7.026;2022-07-22T10:43:52;100857.91;;;22.78;41.70
59272;BME280;45043;51.068;7.026;2022-07-22T10:46:54;100850.84;;;22.77;41.66
59272;BME280;45043;51.068;7.026;2022-07-22T10:53:59;100858.44;;;22.74;41.97
59272;BME280;45043;51.068;7.026;2022-07-22T10:57:02;100861.69;;;22.77;41.64
59272;BME280;45043;51.068;7.026;2022-07-22T11:00:03;100855.44;;;22.76;41.62
59272;BME280;45043;51.068;7.026;2022-07-22T11:03:03;100853.03;;;22.74;41.81
59272;BME280;45043;51.068;7.026;2022-07-22T11:09:20;100859.25;;;22.75;41.50
59272;BME280;45043;51.068;7.026;2022-07-22T11:12:21;100860.06;;;22.76;41.31
59272;BME280;45043;51.068;7.026;2022-07-22T11:15:25;100858.16;;;22.76;41.50
59272;BME280;45043;51.068;7.026;2022-07-22T11:18:53;100856.75;;;22.68;41.40
59272;BME280;45043;51.068;7.026;2022-07-22T11:21:57;100855.16;;;22.72;41.55
59272;BME280;45043;51.068;7.026;2022-07-22T11:25:00;100846.78;;;22.74;41.60
59272;BME280;45043;51.068;7.026;2022-07-22T11:28:04;100845.94;;;22.73;42.03
59272;BME280;45043;51.068;7.026;2022-07-22T11:31:09;100832.97;;;22.76;41.27
59272;BME280;45043;51.068;7.026;2022-07-22T11:34:15;100828.66;;;22.74;41.34
59272;BME280;45043;51.068;7.026;2022-07-22T11:37:18;100835.69;;;22.76;41.28
59272;BME280;45043;51.068;7.026;2022-07-22T11:40:20;100827.28;;;22.77;41.89
59272;BME280;45043;51.068;7.026;2022-07-22T11:43:20;100822.66;;;22.72;41.77
59272;BME280;45043;51.068;7.026;2022-07-22T11:46:21;100834.59;;;22.77;41.77
59272;BME280;45043;51.068;7.026;2022-07-22T11:49:24;100836.78;;;22.74;41.62
59272;BME280;45043;51.068;7.026;2022-07-22T11:52:25;100841.59;;;22.72;41.88
59272;BME280;45043;51.068;7.026;2022-07-22T11:55:26;100835.38;;;22.67;41.69
59272;BME280;45043;51.068;7.026;2022-07-22T11:58:44;100821.00;;;22.61;42.12
59272;BME280;45043;51.068;7.026;2022-07-22T12:01:46;100822.91;;;22.66;42.13
59272;BME280;45043;51.068;7.026;2022-07-22T12:04:47;100820.47;;;22.64;41.72
59272;BME280;45043;51.068;7.026;2022-07-22T12:07:48;100811.78;;;22.62;41.56
59272;BME280;45043;51.068;7.026;2022-07-22T12:10:49;100810.19;;;22.61;42.05
59272;BME280;45043;51.068;7.026;2022-07-22T12:13:51;100811.78;;;22.62;41.90
59272;BME280;45043;51.068;7.026;2022-07-22T12:17:09;100815.59;;;22.61;41.63
59272;BME280;45043;51.068;7.026;2022-07-22T12:20:10;100808.56;;;22.60;41.87
59272;BME280;45043;51.068;7.026;2022-07-22T12:23:13;100810.47;;;22.60;41.81
59272;BME280;45043;51.068;7.026;2022-07-22T12:26:13;100790.13;;;22.57;41.86
59272;BME280;45043;51.068;7.026;2022-07-22T12:29:21;100796.38;;;22.58;41.56
59272;BME280;45043;51.068;7.026;2022-07-22T12:35:22;100785.53;;;22.58;41.52
59272;BME280;45043;51.068;7.026;2022-07-22T12:38:23;100780.41;;;22.56;41.71
59272;BME280;45043;51.068;7.026;2022-07-22T12:41:27;100780.94;;;22.53;41.97
59272;BME280;45043;51.068;7.026;2022-07-22T12:44:29;100788.25;;;22.58;41.81
59272;BME280;45043;51.068;7.026;2022-07-22T12:47:51;100788.78;;;22.55;41.52
59272;BME280;45043;51.068;7.026;2022-07-22T12:51:00;100781.72;;;22.59;41.84
59272;BME280;45043;51.068;7.026;2022-07-22T12:54:01;100768.47;;;22.52;41.89
59272;BME280;45043;51.068;7.026;2022-07-22T12:57:02;100779.31;;;22.57;41.82
59272;BME280;45043;51.068;7.026;2022-07-22T13:00:05;100774.44;;;22.59;41.61
59272;BME280;45043;51.068;7.026;2022-07-22T13:03:06;100766.56;;;22.58;41.65
59272;BME280;45043;51.068;7.026;2022-07-22T13:06:06;100774.97;;;22.61;41.73
59272;BME280;45043;51.068;7.026;2022-07-22T13:09:10;100757.66;;;22.57;41.53
59272;BME280;45043;51.068;7.026;2022-07-22T13:12:11;100764.16;;;22.56;41.77
59272;BME280;45043;51.068;7.026;2022-07-22T13:15:11;100756.31;;;22.60;41.30
59272;BME280;45043;51.068;7.026;2022-07-22T13:18:12;100749.53;;;22.57;41.76
59272;BME280;45043;51.068;7.026;2022-07-22T13:21:12;100750.63;;;22.56;41.58
59272;BME280;45043;51.068;7.026;2022-07-22T13:24:13;100750.31;;;22.58;41.81
59272;BME280;45043;51.068;7.026;2022-07-22T13:27:14;100756.03;;;22.56;41.78
59272;BME280;45043;51.068;7.026;2022-07-22T13:30:15;100749.53;;;22.57;41.76
59272;BME280;45043;51.068;7.026;2022-07-22T13:33:16;100750.63;;;22.56;41.32
59272;BME280;45043;51.068;7.026;2022-07-22T13:36:17;100757.38;;;22.59;41.44
59272;BME280;45043;51.068;7.026;2022-07-22T13:39:17;100740.88;;;22.55;41.59
59272;BME280;45043;51.068;7.026;2022-07-22T13:42:18;100747.91;;;22.56;41.30
59272;BME280;45043;51.068;7.026;2022-07-22T13:45:19;100745.72;;;22.58;41.36
59272;BME280;45043;51.068;7.026;2022-07-22T13:48:20;100737.59;;;22.58;41.54
59272;BME280;45043;51.068;7.026;2022-07-22T13:51:21;100727.53;;;22.13;40.28
59272;BME280;45043;51.068;7.026;2022-07-22T13:54:22;100718.78;;;21.27;41.84
59272;BME280;45043;51.068;7.026;2022-07-22T13:57:23;100731.94;;;20.76;41.38
59272;BME280;45043;51.068;7.026;2022-07-22T14:00:24;100718.47;;;20.44;42.56
59272;BME280;45043;51.068;7.026;2022-07-22T14:03:25;100714.28;;;20.31;42.33
59272;BME280;45043;51.068;7.026;2022-07-22T14:06:25;100706.25;;;20.37;43.71
59272;BME280;45043;51.068;7.026;2022-07-22T14:09:26;100712.97;;;20.34;42.05
59272;BME280;45043;51.068;7.026;2022-07-22T14:12:26;100705.34;;;20.26;43.99
59272;BME280;45043;51.068;7.026;2022-07-22T14:15:27;100715.75;;;20.17;44.34
59272;BME280;45043;51.068;7.026;2022-07-22T14:18:27;100709.06;;;20.20;44.06
59272;BME280;45043;51.068;7.026;2022-07-22T14:21:28;100710.94;;;20.19;44.26
59272;BME280;45043;51.068;7.026;2022-07-22T14:24:28;100702.84;;;20.19;44.26
59272;BME280;45043;51.068;7.026;2022-07-22T14:27:29;100708.94;;;20.37;44.46
59272;BME280;45043;51.068;7.026;2022-07-22T14:30:29;100716.59;;;20.50;44.50
59272;BME280;45043;51.068;7.026;2022-07-22T14:33:29;100710.50;;;20.32;43.10
59272;BME280;45043;51.068;7.026;2022-07-22T14:36:31;100726.16;;;20.30;43.13
59272;BME280;45043;51.068;7.026;2022-07-22T14:39:31;100712.69;;;20.35;43.23
59272;BME280;45043;51.068;7.026;2022-07-22T14:42:35;100700.91;;;20.47;42.43
59272;BME280;45043;51.068;7.026;2022-07-22T14:45:35;100697.50;;;20.24;43.14
59272;BME280;45043;51.068;7.026;2022-07-22T14:48:37;100696.56;;;20.14;42.56
59272;BME280;45043;51.068;7.026;2022-07-22T14:51:37;100706.22;;;20.09;43.03
59272;BME280;45043;51.068;7.026;2022-07-22T14:54:38;100712.09;;;20.06;43.88
59272;BME280;45043;51.068;7.026;2022-07-22T14:57:38;100710.19;;;20.02;42.93
59272;BME280;45043;51.068;7.026;2022-07-22T15:00:39;100712.44;;;20.10;44.93
59272;BME280;45043;51.068;7.026;2022-07-22T15:03:39;100710.06;;;20.14;44.51
59272;BME280;45043;51.068;7.026;2022-07-22T15:06:39;100716.59;;;19.96;43.79
59272;BME280;45043;51.068;7.026;2022-07-22T15:09:40;100692.88;;;19.71;44.26
59272;BME280;45043;51.068;7.026;2022-07-22T15:12:43;100690.53;;;19.79;44.95
59272;BME280;45043;51.068;7.026;2022-07-22T15:15:44;100684.13;;;19.85;44.30
59272;BME280;45043;51.068;7.026;2022-07-22T15:18:44;100679.81;;;19.84;44.01
59272;BME280;45043;51.068;7.026;2022-07-22T15:21:44;100675.28;;;19.90;42.66
59272;BME280;45043;51.068;7.026;2022-07-22T15:24:47;100684.19;;;19.91;42.26
59272;BME280;45043;51.068;7.026;2022-07-22T15:27:48;100673.84;;;19.82;43.01
59272;BME280;45043;51.068;7.026;2022-07-22T15:30:49;100674.22;;;19.69;43.09
59272;BME280;45043;51.068;7.026;2022-07-22T15:33:49;100665.03;;;19.65;43.87
59272;BME280;45043;51.068;7.026;2022-07-22T15:36:50;100668.09;;;19.74;44.60
59272;BME280;45043;51.068;7.026;2022-07-22T15:39:50;100655.84;;;19.88;44.12
59272;BME280;45043;51.068;7.026;2022-07-22T15:42:50;100646.00;;;19.77;44.16
59272;BME280;45043;51.068;7.026;2022-07-22T15:45:51;100646.25;;;19.70;43.03
59272;BME280;45043;51.068;7.026;2022-07-22T15:48:51;100641.28;;;19.62;43.19
59272;BME280;45043;51.068;7.026;2022-07-22T15:51:52;100624.22;;;19.51;43.22
59272;BME280;45043;51.068;7.026;2022-07-22T15:54:52;100635.97;;;19.45;42.92
59272;BME280;45043;51.068;7.026;2022-07-22T15:57:52;100628.00;;;19.33;44.00
59272;BME280;45043;51.068;7.026;2022-07-22T16:01:11;100631.34;;;19.41;43.70
59272;BME280;45043;51.068;7.026;2022-07-22T16:04:12;100629.13;;;19.37;43.15
59272;BME280;45043;51.068;7.026;2022-07-22T16:07:12;100618.13;;;19.39;44.33
59272;BME280;45043;51.068;7.026;2022-07-22T16:10:13;100621.13;;;19.43;44.89
59272;BME280;45043;51.068;7.026;2022-07-22T16:13:14;100612.50;;;19.41;45.02
59272;BME280;45043;51.068;7.026;2022-07-22T16:16:14;100609.19;;;19.38;43.78